createdAt,value
2022-12-15T00:00:15.318Z,100276.09
2022-12-15T00:03:00.174Z,100285.56
2022-12-15T00:05:49.939Z,100297.66
2022-12-15T00:08:34.991Z,100293.28
2022-12-15T00:11:20.869Z,100283.69
2022-12-15T00:14:05.519Z,100289.88
2022-12-15T00:16:50.897Z,100287.38
2022-12-15T00:19:35.520Z,100290.84
2022-12-15T00:22:20.252Z,100290.00
2022-12-15T00:25:05.026Z,100296.03
2022-12-15T00:27:49.737Z,100291.69
2022-12-15T00:30:34.545Z,100294.25
2022-12-15T00:33:24.740Z,100297.72
2022-12-15T00:36:09.565Z,100295.13
2022-12-15T00:38:44.839Z,100282.13
2022-12-15T00:41:12.966Z,100289.97
2022-12-15T00:43:39.367Z,100292.59
2022-12-15T00:46:24.527Z,100296.94
2022-12-15T00:48:50.944Z,100298.72
2022-12-15T00:51:17.663Z,100297.78
2022-12-15T00:54:04.068Z,100297.75
2022-12-15T00:56:49.295Z,100292.47
2022-12-15T00:59:34.970Z,100296.78
2022-12-15T01:02:20.903Z,100298.50
2022-12-15T01:05:06.326Z,100308.06
2022-12-15T01:07:51.632Z,100297.63
2022-12-15T01:10:37.833Z,100307.19
2022-12-15T01:13:23.646Z,100305.50
2022-12-15T01:16:08.449Z,100302.00
2022-12-15T01:18:53.431Z,100300.25
2022-12-15T01:21:24.328Z,100298.47
2022-12-15T01:23:51.879Z,100307.19
2022-12-15T01:26:18.191Z,100295.13
2022-12-15T01:28:44.498Z,100300.31
2022-12-15T01:31:12.177Z,100296.84
2022-12-15T01:33:39.740Z,100302.09
2022-12-15T01:36:06.339Z,100302.97
2022-12-15T01:38:32.712Z,100310.81
2022-12-15T01:41:02.467Z,100308.22
2022-12-15T01:43:35.383Z,100320.28
2022-12-15T01:46:05.655Z,100324.63
2022-12-15T01:48:40.201Z,100324.56
2022-12-15T01:51:34.147Z,100337.56
2022-12-15T01:54:08.154Z,100335.81
2022-12-15T01:56:42.315Z,100334.09
2022-12-15T01:59:15.000Z,100335.78
2022-12-15T02:01:41.511Z,100341.00
2022-12-15T02:04:10.180Z,100334.03
2022-12-15T02:06:36.506Z,100346.16
2022-12-15T02:09:04.278Z,100346.13
2022-12-15T02:11:40.207Z,100353.06
2022-12-15T02:14:09.155Z,100357.34
2022-12-15T02:16:57.146Z,100365.16
2022-12-15T02:19:41.022Z,100350.41
2022-12-15T02:22:24.282Z,100352.16
2022-12-15T02:25:15.530Z,100353.00
2022-12-15T02:27:54.275Z,100355.59
2022-12-15T02:30:29.767Z,100364.28
2022-12-15T02:33:29.512Z,100364.28
2022-12-15T02:35:59.790Z,100377.28
2022-12-15T02:38:35.512Z,100366.03
2022-12-15T02:41:04.287Z,100372.97
2022-12-15T02:43:35.721Z,100379.03
2022-12-15T02:46:17.475Z,100378.19
2022-12-15T02:48:59.832Z,100379.06
2022-12-15T02:51:55.788Z,100373.88
2022-12-15T02:54:34.741Z,100375.59
2022-12-15T02:57:23.957Z,100375.59
2022-12-15T02:59:58.075Z,100380.78
2022-12-15T03:02:28.702Z,100381.63
2022-12-15T03:04:55.645Z,100375.53
2022-12-15T03:07:24.707Z,100379.88
2022-12-15T03:09:51.955Z,100383.31
2022-12-15T03:12:18.262Z,100383.22
2022-12-15T03:14:44.558Z,100387.53
2022-12-15T03:17:10.859Z,100393.59
2022-12-15T03:19:37.169Z,100390.91
2022-12-15T03:22:04.182Z,100393.59
2022-12-15T03:24:30.552Z,100390.03
2022-12-15T03:26:56.855Z,100389.94
2022-12-15T03:29:23.264Z,100390.72
2022-12-15T03:31:50.168Z,100393.22
2022-12-15T03:34:17.014Z,100396.53
2022-12-15T03:36:43.555Z,100407.78
2022-12-15T03:39:10.103Z,100406.91
2022-12-15T03:41:36.408Z,100401.72
2022-12-15T03:44:02.992Z,100396.69
2022-12-15T03:46:29.402Z,100404.59
2022-12-15T03:48:55.825Z,100403.81
2022-12-15T03:51:22.129Z,100409.91
2022-12-15T03:53:49.201Z,100413.41
2022-12-15T03:56:16.612Z,100412.53
2022-12-15T03:58:42.964Z,100416.91
2022-12-15T04:01:22.944Z,100418.69
2022-12-15T04:03:49.459Z,100419.56
2022-12-15T04:06:15.801Z,100413.56
2022-12-15T04:08:42.139Z,100419.63
2022-12-15T04:11:08.425Z,100411.91
2022-12-15T04:13:34.920Z,100407.63
2022-12-15T04:16:02.664Z,100420.63
2022-12-15T04:18:29.043Z,100422.38
2022-12-15T04:20:55.420Z,100424.97
2022-12-15T04:23:21.980Z,100420.59
2022-12-15T04:26:07.180Z,100411.88
2022-12-15T04:28:51.858Z,100409.28
2022-12-15T04:31:44.681Z,100416.16
2022-12-15T04:34:33.336Z,100417.91
2022-12-15T04:37:18.124Z,100418.78
2022-12-15T04:40:07.344Z,100414.38
2022-12-15T04:42:53.719Z,100419.56
2022-12-15T04:45:42.488Z,100433.47
2022-12-15T04:48:28.035Z,100429.13
2022-12-15T04:51:13.240Z,100429.91
2022-12-15T04:53:58.562Z,100435.19
2022-12-15T04:56:43.493Z,100430.06
2022-12-15T04:59:28.315Z,100430.13
2022-12-15T05:02:13.069Z,100431.88
2022-12-15T05:04:58.182Z,100444.03
2022-12-15T05:07:43.903Z,100437.94
2022-12-15T05:10:29.228Z,100434.47
2022-12-15T05:13:13.984Z,100429.25
2022-12-15T05:15:59.001Z,100432.72
2022-12-15T05:18:43.977Z,100436.13
2022-12-15T05:21:28.856Z,100441.22
2022-12-15T05:24:13.605Z,100445.53
2022-12-15T05:26:58.361Z,100448.88
2022-12-15T05:29:42.999Z,100460.09
2022-12-15T05:32:09.355Z,100453.84
2022-12-15T05:34:37.209Z,100453.75
2022-12-15T05:37:05.911Z,100458.03
2022-12-15T05:39:32.583Z,100458.94
2022-12-15T05:41:59.119Z,100463.34
2022-12-15T05:44:26.602Z,100463.34
2022-12-15T05:46:53.544Z,100474.66
2022-12-15T05:49:20.440Z,100478.09
2022-12-15T05:51:47.849Z,100485.88
2022-12-15T05:54:17.267Z,100484.06
2022-12-15T05:56:43.998Z,100482.31
2022-12-15T05:59:10.803Z,100485.69
2022-12-15T06:01:37.219Z,100486.53
2022-12-15T06:04:04.269Z,100494.38
2022-12-15T06:06:30.639Z,100492.69
2022-12-15T06:08:57.200Z,100495.28
2022-12-15T06:11:23.652Z,100508.41
2022-12-15T06:13:50.244Z,100501.47
2022-12-15T06:16:19.702Z,100500.59
2022-12-15T06:18:50.412Z,100505.72
2022-12-15T06:21:19.372Z,100499.50
2022-12-15T06:23:46.734Z,100497.75
2022-12-15T06:26:21.051Z,100494.16
2022-12-15T06:28:48.685Z,100501.22
2022-12-15T06:31:17.689Z,100497.94
2022-12-15T06:33:44.194Z,100493.63
2022-12-15T06:36:15.369Z,100498.00
2022-12-15T06:38:45.145Z,100492.84
2022-12-15T06:41:19.231Z,100493.69
2022-12-15T06:43:52.995Z,100492.84
2022-12-15T06:46:20.302Z,100491.09
2022-12-15T06:48:47.431Z,100490.28
2022-12-15T06:51:17.034Z,100492.94
2022-12-15T06:53:48.628Z,100490.41
2022-12-15T06:56:23.331Z,100485.19
2022-12-15T06:58:54.370Z,100483.53
2022-12-15T07:01:22.865Z,100488.72
2022-12-15T07:03:49.454Z,100493.06
2022-12-15T07:06:16.698Z,100499.16
2022-12-15T07:08:44.983Z,100505.25
2022-12-15T07:11:12.406Z,100508.72
2022-12-15T07:13:39.839Z,100513.09
2022-12-15T07:16:07.869Z,100508.78
2022-12-15T07:18:34.320Z,100506.22
2022-12-15T07:21:06.507Z,100519.22
2022-12-15T07:23:53.684Z,100523.56
2022-12-15T07:26:20.063Z,100535.56
2022-12-15T07:28:46.385Z,100534.69
2022-12-15T07:31:13.034Z,100529.47
2022-12-15T07:33:39.683Z,100526.88
2022-12-15T07:36:08.139Z,100534.75
2022-12-15T07:38:35.338Z,100537.47
2022-12-15T07:41:03.878Z,100539.25
2022-12-15T07:43:31.595Z,100541.88
2022-12-15T07:45:58.915Z,100548.81
2022-12-15T07:48:27.011Z,100548.75
2022-12-15T07:51:02.883Z,100553.94
2022-12-15T07:53:34.987Z,100549.69
2022-12-15T07:56:10.118Z,100553.13
2022-12-15T07:58:37.365Z,100560.97
2022-12-15T08:01:06.800Z,100567.91
2022-12-15T08:03:34.457Z,100562.59
2022-12-15T08:06:09.985Z,100564.31
2022-12-15T08:08:36.804Z,100566.03
2022-12-15T08:11:10.147Z,100558.22
2022-12-15T08:14:02.087Z,100565.16
2022-12-15T08:16:24.025Z,100566.94
2022-12-15T08:18:50.441Z,100562.53
2022-12-15T08:21:17.208Z,100552.91
2022-12-15T08:23:43.518Z,100558.03
2022-12-15T08:26:13.430Z,100556.25
2022-12-15T08:28:40.989Z,100558.81
2022-12-15T08:31:10.349Z,100551.81
2022-12-15T08:33:37.719Z,100553.53
2022-12-15T08:36:08.105Z,100560.38
2022-12-15T08:38:36.229Z,100562.06
2022-12-15T08:41:09.767Z,100564.66
2022-12-15T08:43:41.120Z,100563.72
2022-12-15T08:46:12.834Z,100580.28
2022-12-15T08:48:39.505Z,100570.66
2022-12-15T08:51:06.344Z,100574.13
2022-12-15T08:53:32.771Z,100578.41
2022-12-15T08:56:07.660Z,100573.97
2022-12-15T08:58:34.413Z,100574.75
2022-12-15T09:01:06.879Z,100583.31
2022-12-15T09:03:34.954Z,100575.44
2022-12-15T09:06:13.102Z,100575.34
2022-12-15T09:08:39.661Z,100583.94
2022-12-15T09:11:06.207Z,100583.81
2022-12-15T09:13:33.161Z,100583.72
2022-12-15T09:16:10.745Z,100589.75
2022-12-15T09:18:37.857Z,100581.78
2022-12-15T09:21:06.992Z,100580.78
2022-12-15T09:23:35.493Z,100594.59
2022-12-15T09:26:07.881Z,100596.22
2022-12-15T09:28:34.571Z,100590.88
2022-12-15T09:31:08.076Z,100600.41
2022-12-15T09:33:35.185Z,100604.63
2022-12-15T09:36:03.400Z,100613.31
2022-12-15T09:38:30.459Z,100609.84
2022-12-15T09:40:57.365Z,100607.94
2022-12-15T09:43:35.767Z,100609.50
2022-12-15T09:46:13.255Z,100618.88
2022-12-15T09:48:45.183Z,100620.50
2022-12-15T09:51:16.339Z,100629.91
2022-12-15T09:53:54.863Z,100628.91
2022-12-15T09:56:31.077Z,100637.59
2022-12-15T09:59:05.226Z,100637.31
2022-12-15T10:01:43.979Z,100642.50
2022-12-15T10:04:37.690Z,100640.66
2022-12-15T10:07:08.516Z,100641.72
2022-12-15T10:09:37.195Z,100641.78
2022-12-15T10:12:12.153Z,100641.69
2022-12-15T10:14:43.974Z,100643.25
2022-12-15T10:17:26.299Z,100642.19
2022-12-15T10:20:20.597Z,100648.97
2022-12-15T10:22:50.481Z,100656.72
2022-12-15T10:25:29.830Z,100659.97
2022-12-15T10:28:31.784Z,100662.59
2022-12-15T10:31:02.231Z,100663.28
2022-12-15T10:33:34.848Z,100667.59
2022-12-15T10:36:01.981Z,100661.44
2022-12-15T10:38:45.263Z,100666.88
2022-12-15T10:41:14.361Z,100658.09
2022-12-15T10:43:43.690Z,100658.19
2022-12-15T10:46:15.000Z,100656.66
2022-12-15T10:48:43.943Z,100649.81
2022-12-15T10:51:32.932Z,100652.47
2022-12-15T10:54:10.568Z,100652.34
2022-12-15T10:56:53.365Z,100653.09
2022-12-15T10:59:33.465Z,100650.56
2022-12-15T11:02:24.255Z,100657.34
2022-12-15T11:05:16.507Z,100651.84
2022-12-15T11:07:49.456Z,100648.13
2022-12-15T11:10:27.501Z,100646.16
2022-12-15T11:13:05.760Z,100637.94
2022-12-15T11:15:32.133Z,100635.22
2022-12-15T11:18:14.811Z,100637.50
2022-12-15T11:20:45.410Z,100629.59
2022-12-15T11:23:33.177Z,100628.44
2022-12-15T11:26:13.585Z,100632.66
2022-12-15T11:28:50.915Z,100618.50
2022-12-15T11:31:32.774Z,100621.88
2022-12-15T11:33:59.313Z,100625.28
2022-12-15T11:36:52.068Z,100625.84
2022-12-15T11:39:37.428Z,100623.81
2022-12-15T11:42:13.451Z,100626.06
2022-12-15T11:45:09.319Z,100625.19
2022-12-15T11:47:40.702Z,100628.56
2022-12-15T11:50:38.207Z,100627.19
2022-12-15T11:53:13.411Z,100619.38
2022-12-15T11:55:42.947Z,100613.91
2022-12-15T11:58:34.730Z,100598.97
2022-12-15T12:01:28.704Z,100606.66
2022-12-15T12:04:06.471Z,100594.34
2022-12-15T12:06:43.023Z,100584.88
2022-12-15T12:09:29.501Z,100588.72
2022-12-15T12:12:14.430Z,100595.88
2022-12-15T12:14:57.686Z,100591.69
2022-12-15T12:17:43.146Z,100592.63
2022-12-15T12:20:18.306Z,100597.91
2022-12-15T12:23:05.452Z,100599.09
2022-12-15T12:25:41.545Z,100599.91
2022-12-15T12:28:17.719Z,100595.53
2022-12-15T12:30:50.334Z,100590.63
2022-12-15T12:33:47.173Z,100594.28
2022-12-15T12:36:15.918Z,100595.94
2022-12-15T12:38:50.803Z,100590.56
2022-12-15T12:41:40.298Z,100590.59
2022-12-15T12:44:24.514Z,100585.00
2022-12-15T12:46:55.527Z,100579.63
2022-12-15T12:49:33.196Z,100581.28
2022-12-15T12:52:04.100Z,100574.31
2022-12-15T12:54:36.510Z,100576.81
2022-12-15T12:57:30.526Z,100569.78
2022-12-15T13:00:01.102Z,100575.09
2022-12-15T13:02:27.611Z,100569.94
2022-12-15T13:04:57.241Z,100574.56
2022-12-15T13:07:40.224Z,100575.31
2022-12-15T13:10:09.539Z,100570.03
2022-12-15T13:13:01.882Z,100565.34
2022-12-15T13:15:31.253Z,100561.09
2022-12-15T13:18:06.831Z,100557.22
2022-12-15T13:20:36.176Z,100549.22
2022-12-15T13:23:41.429Z,100560.47
2022-12-15T13:26:08.348Z,100547.25
2022-12-15T13:28:34.704Z,100540.06
2022-12-15T13:31:16.745Z,100533.09
2022-12-15T13:33:49.288Z,100528.91
2022-12-15T13:36:39.975Z,100525.50
2022-12-15T13:39:12.604Z,100525.47
2022-12-15T13:42:07.565Z,100516.97
2022-12-15T13:44:46.614Z,100511.38
2022-12-15T13:47:29.823Z,100518.44
2022-12-15T13:50:07.405Z,100521.13
2022-12-15T13:53:17.226Z,100523.81
2022-12-15T13:55:39.214Z,100510.63
2022-12-15T13:58:16.311Z,100509.56
2022-12-15T14:00:55.394Z,100506.94
2022-12-15T14:03:23.427Z,100506.00
2022-12-15T14:05:55.637Z,100507.56
2022-12-15T14:08:24.471Z,100515.66
2022-12-15T14:10:58.087Z,100500.88
2022-12-15T14:13:33.658Z,100507.91
2022-12-15T14:16:19.389Z,100507.31
2022-12-15T14:19:04.050Z,100503.81
2022-12-15T14:21:30.454Z,100501.84
2022-12-15T14:24:28.887Z,100507.22
2022-12-15T14:26:44.210Z,100509.44
2022-12-15T14:29:12.888Z,100507.03
2022-12-15T14:31:40.487Z,100512.44
2022-12-15T14:34:13.843Z,100509.06
2022-12-15T14:36:43.031Z,100506.44
2022-12-15T14:39:32.953Z,100492.81
2022-12-15T14:42:01.366Z,100486.59
2022-12-15T14:44:37.153Z,100491.16
2022-12-15T14:47:08.404Z,100490.28
2022-12-15T14:49:42.532Z,100490.47
2022-12-15T14:52:27.746Z,100485.94
2022-12-15T14:54:57.341Z,100480.09
2022-12-15T14:57:27.666Z,100486.34
2022-12-15T14:59:54.524Z,100482.72
2022-12-15T15:02:26.860Z,100481.41
2022-12-15T15:04:59.581Z,100477.22
2022-12-15T15:07:28.749Z,100487.84
2022-12-15T15:09:55.532Z,100485.31
2022-12-15T15:12:24.833Z,100482.19
2022-12-15T15:14:58.979Z,100473.78
2022-12-15T15:17:43.657Z,100467.47
2022-12-15T15:20:21.531Z,100472.03
2022-12-15T15:23:08.471Z,100478.19
2022-12-15T15:25:56.438Z,100467.88
2022-12-15T15:28:28.234Z,100473.13
2022-12-15T15:30:57.792Z,100469.69
2022-12-15T15:33:25.206Z,100472.41
2022-12-15T15:35:55.261Z,100472.50
2022-12-15T15:38:32.185Z,100477.00
2022-12-15T15:41:14.715Z,100491.94
2022-12-15T15:43:42.047Z,100489.34
2022-12-15T15:46:13.038Z,100493.88
2022-12-15T15:48:44.731Z,100499.13
2022-12-15T15:51:11.162Z,100494.69
2022-12-15T15:53:38.667Z,100501.75
2022-12-15T15:56:07.063Z,100511.38
2022-12-15T15:58:35.333Z,100505.28
2022-12-15T16:01:04.765Z,100509.81
2022-12-15T16:03:35.216Z,100508.19
2022-12-15T16:06:06.383Z,100516.22
2022-12-15T16:08:36.650Z,100521.66
2022-12-15T16:11:03.170Z,100519.19
2022-12-15T16:13:29.571Z,100525.44
2022-12-15T16:15:56.129Z,100528.25
2022-12-15T16:18:22.601Z,100532.72
2022-12-15T16:20:51.522Z,100528.50
2022-12-15T16:23:21.278Z,100530.31
2022-12-15T16:25:52.730Z,100533.03
2022-12-15T16:28:24.576Z,100537.44
2022-12-15T16:30:51.100Z,100533.25
2022-12-15T16:33:18.074Z,100529.81
2022-12-15T16:35:47.245Z,100537.72
2022-12-15T16:38:19.355Z,100537.72
2022-12-15T16:40:45.847Z,100541.25
2022-12-15T16:43:15.988Z,100541.41
2022-12-15T16:45:47.155Z,100546.72
2022-12-15T16:48:14.416Z,100540.69
2022-12-15T16:50:43.557Z,100544.22
2022-12-15T16:53:18.623Z,100554.69
2022-12-15T16:55:45.381Z,100556.47
2022-12-15T16:58:15.621Z,100565.25
2022-12-15T17:00:42.695Z,100565.31
2022-12-15T17:03:13.868Z,100565.38
2022-12-15T17:05:41.844Z,100567.16
2022-12-15T17:08:18.141Z,100563.84
2022-12-15T17:10:45.986Z,100566.47
2022-12-15T17:13:19.693Z,100563.88
2022-12-15T17:15:46.666Z,100563.00
2022-12-15T17:18:14.770Z,100570.13
2022-12-15T17:20:42.151Z,100573.72
2022-12-15T17:23:15.913Z,100580.78
2022-12-15T17:28:33.212Z,100586.16
2022-12-15T17:31:00.398Z,100580.16
2022-12-15T17:33:29.789Z,100583.66
2022-12-15T17:36:01.043Z,100587.13
2022-12-15T17:38:27.790Z,100585.38
2022-12-15T17:40:56.342Z,100594.09
2022-12-15T17:43:28.149Z,100593.38
2022-12-15T17:45:58.384Z,100601.19
2022-12-15T17:48:25.223Z,100600.28
2022-12-15T17:50:53.212Z,100606.38
2022-12-15T17:53:22.114Z,100615.97
2022-12-15T17:55:49.661Z,100615.16
2022-12-15T17:58:21.612Z,100621.31
2022-12-15T18:00:51.641Z,100626.59
2022-12-15T18:03:19.133Z,100625.78
2022-12-15T18:05:47.739Z,100620.59
2022-12-15T18:08:17.681Z,100622.38
2022-12-15T18:10:45.810Z,100617.06
2022-12-15T18:13:18.618Z,100627.56
2022-12-15T18:15:46.545Z,100628.44
2022-12-15T18:18:13.890Z,100624.09
2022-12-15T18:20:40.891Z,100625.81
2022-12-15T18:23:16.235Z,100635.31
2022-12-15T18:25:43.979Z,100636.22
2022-12-15T18:28:27.690Z,100638.84
2022-12-15T18:31:12.640Z,100629.34
2022-12-15T18:33:39.043Z,100626.66
2022-12-15T18:36:05.909Z,100625.00
2022-12-15T18:38:32.287Z,100615.41
2022-12-15T18:41:00.110Z,100611.00
2022-12-15T18:43:31.035Z,100611.03
2022-12-15T18:45:58.014Z,100604.91
2022-12-15T18:48:25.400Z,100602.34
2022-12-15T18:50:53.320Z,100593.63
2022-12-15T18:53:32.399Z,100594.53
2022-12-15T18:56:05.636Z,100597.09
2022-12-15T18:58:34.763Z,100596.22
2022-12-15T19:01:02.859Z,100584.88
2022-12-15T19:03:30.723Z,100581.47
2022-12-15T19:06:34.706Z,100583.25
2022-12-15T19:09:07.529Z,100586.81
2022-12-15T19:11:34.482Z,100595.66
2022-12-15T19:14:03.023Z,100604.44
2022-12-15T19:16:52.981Z,100608.84
2022-12-15T19:19:38.081Z,100601.94
2022-12-15T19:22:29.726Z,100601.06
2022-12-15T19:24:56.125Z,100598.50
2022-12-15T19:27:26.101Z,100595.06
2022-12-15T19:29:54.153Z,100593.38
2022-12-15T19:32:21.434Z,100599.47
2022-12-15T19:34:47.896Z,100605.63
2022-12-15T19:37:22.746Z,100596.00
2022-12-15T19:39:49.528Z,100583.81
2022-12-15T19:42:23.926Z,100583.78
2022-12-15T19:44:50.248Z,100586.44
2022-12-15T19:47:16.580Z,100578.59
2022-12-15T19:49:43.386Z,100577.72
2022-12-15T19:52:17.926Z,100575.06
2022-12-15T19:54:47.014Z,100582.00
2022-12-15T19:57:15.689Z,100579.41
2022-12-15T19:59:42.127Z,100582.97
2022-12-15T20:02:16.546Z,100587.38
2022-12-15T20:04:43.324Z,100580.47
2022-12-15T20:07:22.201Z,100583.03
2022-12-15T20:09:48.551Z,100581.31
2022-12-15T20:12:22.558Z,100582.22
2022-12-15T20:14:48.983Z,100582.28
2022-12-15T20:17:15.417Z,100588.41
2022-12-15T20:19:42.055Z,100586.72
2022-12-15T20:22:17.219Z,100594.56
2022-12-15T20:24:45.210Z,100580.66
2022-12-15T20:27:16.612Z,100580.72
2022-12-15T20:29:43.932Z,100580.72
2022-12-15T20:32:19.365Z,100582.56
2022-12-15T20:34:46.471Z,100589.47
2022-12-15T20:37:18.512Z,100582.56
2022-12-15T20:39:44.901Z,100583.47
2022-12-15T20:42:15.454Z,100580.88
2022-12-15T20:44:41.911Z,100580.00
2022-12-15T20:47:20.852Z,100573.91
2022-12-15T20:49:49.610Z,100580.84
2022-12-15T20:52:22.647Z,100579.06
2022-12-15T20:54:50.825Z,100577.38
2022-12-15T20:57:18.700Z,100583.47
2022-12-15T20:59:45.416Z,100573.84
2022-12-15T21:02:23.665Z,100580.75
2022-12-15T21:04:50.935Z,100577.47
2022-12-15T21:07:17.367Z,100590.56
2022-12-15T21:09:43.743Z,100595.84
2022-12-15T21:12:18.849Z,100596.75
2022-12-15T21:14:45.684Z,100590.66
2022-12-15T21:17:22.226Z,100584.59
2022-12-15T21:19:49.423Z,100577.63
2022-12-15T21:22:23.587Z,100585.41
2022-12-15T21:24:52.996Z,100592.41
2022-12-15T21:27:20.836Z,100586.38
2022-12-15T21:29:52.264Z,100598.50
2022-12-15T21:32:19.570Z,100594.19
2022-12-15T21:34:45.936Z,100602.00
2022-12-15T21:37:23.856Z,100608.09
2022-12-15T21:39:50.616Z,100615.03
2022-12-15T21:42:18.867Z,100625.44
2022-12-15T21:44:45.492Z,100623.72
2022-12-15T21:47:50.032Z,100615.94
2022-12-15T21:50:19.154Z,100619.34
2022-12-15T21:52:45.850Z,100621.97
2022-12-15T21:55:16.947Z,100622.84
2022-12-15T21:57:43.337Z,100624.56
2022-12-15T22:00:12.055Z,100626.31
2022-12-15T22:02:38.430Z,100637.63
2022-12-15T22:05:16.425Z,100635.91
2022-12-15T22:07:42.834Z,100633.34
2022-12-15T22:10:09.338Z,100629.00
2022-12-15T22:12:36.172Z,100632.47
2022-12-15T22:15:03.622Z,100625.50
2022-12-15T22:17:29.950Z,100631.59
2022-12-15T22:19:56.297Z,100635.06
2022-12-15T22:22:24.718Z,100635.09
2022-12-15T22:24:54.685Z,100635.94
2022-12-15T22:27:22.588Z,100629.00
2022-12-15T22:29:50.210Z,100631.59
2022-12-15T22:32:17.110Z,100626.38
2022-12-15T22:34:43.554Z,100632.47
2022-12-15T22:37:10.127Z,100625.53
2022-12-15T22:39:36.448Z,100625.53
2022-12-15T22:42:04.288Z,100628.16
2022-12-15T22:44:33.526Z,100622.94
2022-12-15T22:47:02.267Z,100628.16
2022-12-15T22:49:35.709Z,100633.34
2022-12-15T22:52:02.207Z,100634.22
2022-12-15T22:54:30.712Z,100636.84
2022-12-15T22:57:03.764Z,100632.50
2022-12-15T22:59:42.641Z,100636.84
2022-12-15T23:02:10.105Z,100627.31
2022-12-15T23:04:36.525Z,100629.88
2022-12-15T23:07:06.832Z,100632.50
2022-12-15T23:09:33.243Z,100629.00
2022-12-15T23:11:59.604Z,100629.88
2022-12-15T23:14:44.539Z,100629.03
2022-12-15T23:17:11.903Z,100627.28
2022-12-15T23:19:43.431Z,100630.75
2022-12-15T23:22:09.895Z,100627.31
2022-12-15T23:24:36.219Z,100635.09
2022-12-15T23:27:02.614Z,100635.97
2022-12-15T23:29:29.002Z,100642.91
2022-12-15T23:31:55.339Z,100654.19
2022-12-15T23:34:21.675Z,100652.44
2022-12-15T23:36:48.061Z,100653.31
2022-12-15T23:39:14.523Z,100656.78
2022-12-15T23:41:42.300Z,100654.19
2022-12-15T23:44:08.726Z,100655.91
2022-12-15T23:46:35.234Z,100657.66
2022-12-15T23:49:01.594Z,100657.63
2022-12-15T23:51:27.983Z,100653.31
2022-12-15T23:53:54.629Z,100662.84
2022-12-15T23:56:23.796Z,100656.78
2022-12-15T23:58:57.689Z,100653.31
